KLBL

Liberal Mid-America Regional Airport

Liberal, Kansas, USA
METAR KLBL 201956Z AUTO 36014KT 7SM CLR 23/11 A3016 RMK AO2 SLP190 T02330106
Observed Flight Rules
Aug-20 @ 19:56 UTC (34 minutes ago) Visual Flight Rules
Wind Visibility Clouds
360° at 14 knots 7 miles
  • Clear skies
Temperatures Readings
Current 23°C / 73°F
Dewpoint 11°C / 52°F
Humidity 47%
Altimeter 30.16" Hg
Pressure 1019 hPa
Elevation 879
METAR KLBL 201956Z AUTO 36014KT 7SM CLR 23/11 A3016 RMK AO2 SLP190 T02330106
Observed Flight Rules
Aug-20 @ 19:56 UTC
(34 minutes ago)
VFR
Wind Visibility
360° at 14 knots 7 miles
Clouds
  • Clear skies
Temperature Dewpoint
23°C / 73°F 11°C / 52°F
Humidity Altimeter Pressure
47% 30.16" Hg 1019 hPa